sensor_id;sensor_type;location;lat;lon;timestamp;P1;durP1;ratioP1;P2;durP2;ratioP2
13764;SDS011;6953;48.810;9.204;2022-07-23T00:01:28;0.20;;;0.20;;
13764;SDS011;6953;48.810;9.204;2022-07-23T00:03:54;0.20;;;0.20;;
13764;SDS011;6953;48.810;9.204;2022-07-23T00:06:20;0.20;;;0.20;;
13764;SDS011;6953;48.810;9.204;2022-07-23T00:08:46;0.20;;;0.20;;
13764;SDS011;6953;48.810;9.204;2022-07-23T00:11:11;0.20;;;0.20;;
13764;SDS011;6953;48.810;9.204;2022-07-23T00:13:37;0.20;;;0.20;;
13764;SDS011;6953;48.810;9.204;2022-07-23T00:16:02;0.20;;;0.20;;
13764;SDS011;6953;48.810;9.204;2022-07-23T00:18:28;0.20;;;0.20;;
13764;SDS011;6953;48.810;9.204;2022-07-23T00:20:53;0.20;;;0.20;;
13764;SDS011;6953;48.810;9.204;2022-07-23T00:23:19;0.20;;;0.20;;
13764;SDS011;6953;48.810;9.204;2022-07-23T00:25:44;0.20;;;0.20;;
13764;SDS011;6953;48.810;9.204;2022-07-23T00:28:12;0.20;;;0.20;;
13764;SDS011;6953;48.810;9.204;2022-07-23T00:30:38;0.20;;;0.20;;
13764;SDS011;6953;48.810;9.204;2022-07-23T00:33:05;0.20;;;0.20;;
13764;SDS011;6953;48.810;9.204;2022-07-23T00:35:34;0.20;;;0.20;;
13764;SDS011;6953;48.810;9.204;2022-07-23T00:38:02;0.20;;;0.20;;
13764;SDS011;6953;48.810;9.204;2022-07-23T00:40:28;0.20;;;0.20;;
13764;SDS011;6953;48.810;9.204;2022-07-23T00:42:54;0.20;;;0.20;;
13764;SDS011;6953;48.810;9.204;2022-07-23T00:45:20;0.20;;;0.20;;
13764;SDS011;6953;48.810;9.204;2022-07-23T00:47:46;0.20;;;0.20;;
13764;SDS011;6953;48.810;9.204;2022-07-23T00:50:11;0.20;;;0.20;;
13764;SDS011;6953;48.810;9.204;2022-07-23T00:52:37;0.20;;;0.20;;
13764;SDS011;6953;48.810;9.204;2022-07-23T00:55:04;0.10;;;0.10;;
13764;SDS011;6953;48.810;9.204;2022-07-23T00:57:30;0.10;;;0.10;;
13764;SDS011;6953;48.810;9.204;2022-07-23T00:59:56;0.10;;;0.10;;
13764;SDS011;6953;48.810;9.204;2022-07-23T01:02:23;0.20;;;0.20;;
13764;SDS011;6953;48.810;9.204;2022-07-23T01:04:49;0.20;;;0.20;;
13764;SDS011;6953;48.810;9.204;2022-07-23T01:07:14;0.20;;;0.20;;
13764;SDS011;6953;48.810;9.204;2022-07-23T01:09:40;0.20;;;0.20;;
13764;SDS011;6953;48.810;9.204;2022-07-23T01:12:07;0.20;;;0.20;;
13764;SDS011;6953;48.810;9.204;2022-07-23T01:14:32;0.20;;;0.20;;
13764;SDS011;6953;48.810;9.204;2022-07-23T01:16:58;0.20;;;0.20;;
13764;SDS011;6953;48.810;9.204;2022-07-23T01:19:23;0.20;;;0.20;;
13764;SDS011;6953;48.810;9.204;2022-07-23T01:21:50;0.10;;;0.10;;
13764;SDS011;6953;48.810;9.204;2022-07-23T01:24:18;0.10;;;0.10;;
13764;SDS011;6953;48.810;9.204;2022-07-23T01:26:45;0.20;;;0.20;;
13764;SDS011;6953;48.810;9.204;2022-07-23T01:29:11;0.13;;;0.13;;
13764;SDS011;6953;48.810;9.204;2022-07-23T01:31:37;0.20;;;0.20;;
13764;SDS011;6953;48.810;9.204;2022-07-23T01:34:03;0.10;;;0.10;;
13764;SDS011;6953;48.810;9.204;2022-07-23T01:36:29;0.10;;;0.10;;
13764;SDS011;6953;48.810;9.204;2022-07-23T01:38:55;0.15;;;0.15;;
13764;SDS011;6953;48.810;9.204;2022-07-23T01:41:20;0.20;;;0.20;;
13764;SDS011;6953;48.810;9.204;2022-07-23T01:43:45;0.20;;;0.20;;
13764;SDS011;6953;48.810;9.204;2022-07-23T01:46:11;0.20;;;0.20;;
13764;SDS011;6953;48.810;9.204;2022-07-23T01:48:37;0.20;;;0.20;;
13764;SDS011;6953;48.810;9.204;2022-07-23T01:51:02;0.10;;;0.10;;
13764;SDS011;6953;48.810;9.204;2022-07-23T01:53:27;0.10;;;0.10;;
13764;SDS011;6953;48.810;9.204;2022-07-23T01:55:56;0.10;;;0.10;;
13764;SDS011;6953;48.810;9.204;2022-07-23T01:58:21;0.20;;;0.20;;
13764;SDS011;6953;48.810;9.204;2022-07-23T02:00:47;0.10;;;0.10;;
13764;SDS011;6953;48.810;9.204;2022-07-23T02:03:12;0.10;;;0.10;;
13764;SDS011;6953;48.810;9.204;2022-07-23T02:05:37;0.10;;;0.10;;
13764;SDS011;6953;48.810;9.204;2022-07-23T02:08:03;0.10;;;0.10;;
13764;SDS011;6953;48.810;9.204;2022-07-23T02:10:28;0.10;;;0.10;;
13764;SDS011;6953;48.810;9.204;2022-07-23T02:12:53;0.13;;;0.13;;
13764;SDS011;6953;48.810;9.204;2022-07-23T02:15:19;0.10;;;0.10;;
13764;SDS011;6953;48.810;9.204;2022-07-23T02:17:45;0.20;;;0.20;;
13764;SDS011;6953;48.810;9.204;2022-07-23T02:20:10;0.20;;;0.20;;
13764;SDS011;6953;48.810;9.204;2022-07-23T02:22:37;0.20;;;0.20;;
13764;SDS011;6953;48.810;9.204;2022-07-23T02:25:03;0.20;;;0.20;;
13764;SDS011;6953;48.810;9.204;2022-07-23T02:27:30;0.20;;;0.20;;
13764;SDS011;6953;48.810;9.204;2022-07-23T02:29:55;0.20;;;0.20;;
13764;SDS011;6953;48.810;9.204;2022-07-23T02:32:21;0.20;;;0.20;;
13764;SDS011;6953;48.810;9.204;2022-07-23T02:34:47;0.20;;;0.20;;
13764;SDS011;6953;48.810;9.204;2022-07-23T02:37:13;0.20;;;0.20;;
13764;SDS011;6953;48.810;9.204;2022-07-23T02:39:38;0.20;;;0.20;;
13764;SDS011;6953;48.810;9.204;2022-07-23T02:42:04;0.20;;;0.20;;
13764;SDS011;6953;48.810;9.204;2022-07-23T02:44:29;0.10;;;0.10;;
13764;SDS011;6953;48.810;9.204;2022-07-23T02:46:55;0.20;;;0.20;;
13764;SDS011;6953;48.810;9.204;2022-07-23T02:49:20;0.17;;;0.17;;
13764;SDS011;6953;48.810;9.204;2022-07-23T02:51:46;0.20;;;0.20;;
13764;SDS011;6953;48.810;9.204;2022-07-23T02:54:11;0.20;;;0.20;;
13764;SDS011;6953;48.810;9.204;2022-07-23T02:56:37;0.10;;;0.10;;
13764;SDS011;6953;48.810;9.204;2022-07-23T02:59:02;0.20;;;0.20;;
13764;SDS011;6953;48.810;9.204;2022-07-23T03:01:27;0.20;;;0.20;;
13764;SDS011;6953;48.810;9.204;2022-07-23T03:03:53;0.10;;;0.10;;
13764;SDS011;6953;48.810;9.204;2022-07-23T03:06:18;0.20;;;0.20;;
13764;SDS011;6953;48.810;9.204;2022-07-23T03:08:43;0.20;;;0.20;;
13764;SDS011;6953;48.810;9.204;2022-07-23T03:11:09;0.20;;;0.20;;
13764;SDS011;6953;48.810;9.204;2022-07-23T03:13:39;0.10;;;0.10;;
13764;SDS011;6953;48.810;9.204;2022-07-23T03:16:05;0.10;;;0.10;;
13764;SDS011;6953;48.810;9.204;2022-07-23T03:18:31;0.20;;;0.20;;
13764;SDS011;6953;48.810;9.204;2022-07-23T03:20:57;0.10;;;0.10;;
13764;SDS011;6953;48.810;9.204;2022-07-23T03:23:22;0.20;;;0.20;;
13764;SDS011;6953;48.810;9.204;2022-07-23T03:25:48;0.10;;;0.10;;
13764;SDS011;6953;48.810;9.204;2022-07-23T03:28:14;0.15;;;0.15;;
13764;SDS011;6953;48.810;9.204;2022-07-23T03:30:41;0.20;;;0.20;;
13764;SDS011;6953;48.810;9.204;2022-07-23T03:33:11;0.10;;;0.10;;
13764;SDS011;6953;48.810;9.204;2022-07-23T03:35:41;0.20;;;0.20;;
13764;SDS011;6953;48.810;9.204;2022-07-23T03:38:08;0.20;;;0.20;;
13764;SDS011;6953;48.810;9.204;2022-07-23T03:40:33;0.13;;;0.13;;
13764;SDS011;6953;48.810;9.204;2022-07-23T03:42:58;0.10;;;0.10;;
13764;SDS011;6953;48.810;9.204;2022-07-23T03:45:24;0.10;;;0.10;;
13764;SDS011;6953;48.810;9.204;2022-07-23T03:47:49;0.10;;;0.10;;
13764;SDS011;6953;48.810;9.204;2022-07-23T03:50:14;0.10;;;0.10;;
13764;SDS011;6953;48.810;9.204;2022-07-23T03:52:40;0.10;;;0.10;;
13764;SDS011;6953;48.810;9.204;2022-07-23T03:55:05;0.10;;;0.10;;
13764;SDS011;6953;48.810;9.204;2022-07-23T03:57:31;0.10;;;0.10;;
13764;SDS011;6953;48.810;9.204;2022-07-23T03:59:57;0.10;;;0.10;;
13764;SDS011;6953;48.810;9.204;2022-07-23T04:02:22;0.10;;;0.10;;
13764;SDS011;6953;48.810;9.204;2022-07-23T04:04:47;0.10;;;0.10;;
13764;SDS011;6953;48.810;9.204;2022-07-23T04:07:13;0.10;;;0.10;;
13764;SDS011;6953;48.810;9.204;2022-07-23T04:09:42;0.10;;;0.10;;
13764;SDS011;6953;48.810;9.204;2022-07-23T04:12:08;0.10;;;0.10;;
13764;SDS011;6953;48.810;9.204;2022-07-23T04:14:33;0.10;;;0.10;;
13764;SDS011;6953;48.810;9.204;2022-07-23T04:16:59;0.10;;;0.10;;
13764;SDS011;6953;48.810;9.204;2022-07-23T04:19:24;0.10;;;0.10;;
13764;SDS011;6953;48.810;9.204;2022-07-23T04:21:50;0.10;;;0.10;;
13764;SDS011;6953;48.810;9.204;2022-07-23T04:24:15;0.10;;;0.10;;
13764;SDS011;6953;48.810;9.204;2022-07-23T04:26:41;0.10;;;0.10;;
13764;SDS011;6953;48.810;9.204;2022-07-23T04:29:06;0.10;;;0.10;;
13764;SDS011;6953;48.810;9.204;2022-07-23T04:31:31;0.10;;;0.10;;
13764;SDS011;6953;48.810;9.204;2022-07-23T04:33:57;0.10;;;0.10;;
13764;SDS011;6953;48.810;9.204;2022-07-23T04:36:22;0.10;;;0.10;;
13764;SDS011;6953;48.810;9.204;2022-07-23T04:38:48;0.10;;;0.10;;
13764;SDS011;6953;48.810;9.204;2022-07-23T04:41:14;0.10;;;0.10;;
13764;SDS011;6953;48.810;9.204;2022-07-23T04:43:39;0.10;;;0.10;;
13764;SDS011;6953;48.810;9.204;2022-07-23T04:46:05;0.10;;;0.10;;
13764;SDS011;6953;48.810;9.204;2022-07-23T04:48:30;0.10;;;0.10;;
13764;SDS011;6953;48.810;9.204;2022-07-23T04:50:56;0.10;;;0.10;;
13764;SDS011;6953;48.810;9.204;2022-07-23T04:53:21;0.10;;;0.10;;
13764;SDS011;6953;48.810;9.204;2022-07-23T04:55:47;0.10;;;0.10;;
13764;SDS011;6953;48.810;9.204;2022-07-23T04:58:13;0.10;;;0.10;;
13764;SDS011;6953;48.810;9.204;2022-07-23T05:00:38;0.10;;;0.10;;
13764;SDS011;6953;48.810;9.204;2022-07-23T05:03:03;0.10;;;0.10;;
13764;SDS011;6953;48.810;9.204;2022-07-23T05:05:29;0.10;;;0.10;;
13764;SDS011;6953;48.810;9.204;2022-07-23T05:07:54;0.03;;;0.03;;
13764;SDS011;6953;48.810;9.204;2022-07-23T05:10:19;0.10;;;0.10;;
13764;SDS011;6953;48.810;9.204;2022-07-23T05:12:45;0.10;;;0.10;;
13764;SDS011;6953;48.810;9.204;2022-07-23T05:15:10;0.05;;;0.05;;
13764;SDS011;6953;48.810;9.204;2022-07-23T05:17:36;0.00;;;0.00;;
13764;SDS011;6953;48.810;9.204;2022-07-23T05:20:01;0.10;;;0.10;;
13764;SDS011;6953;48.810;9.204;2022-07-23T05:22:28;0.10;;;0.10;;
13764;SDS011;6953;48.810;9.204;2022-07-23T05:24:53;0.08;;;0.08;;
13764;SDS011;6953;48.810;9.204;2022-07-23T05:27:18;0.10;;;0.10;;
13764;SDS011;6953;48.810;9.204;2022-07-23T05:29:44;0.10;;;0.10;;
13764;SDS011;6953;48.810;9.204;2022-07-23T05:32:09;0.08;;;0.08;;
13764;SDS011;6953;48.810;9.204;2022-07-23T05:34:35;0.00;;;0.00;;
13764;SDS011;6953;48.810;9.204;2022-07-23T05:37:00;0.00;;;0.00;;
13764;SDS011;6953;48.810;9.204;2022-07-23T05:39:25;0.00;;;0.00;;
13764;SDS011;6953;48.810;9.204;2022-07-23T05:41:51;0.00;;;0.00;;
13764;SDS011;6953;48.810;9.204;2022-07-23T05:44:16;0.10;;;0.10;;
13764;SDS011;6953;48.810;9.204;2022-07-23T05:46:41;0.10;;;0.10;;
13764;SDS011;6953;48.810;9.204;2022-07-23T05:49:07;0.10;;;0.10;;
13764;SDS011;6953;48.810;9.204;2022-07-23T05:51:32;0.10;;;0.10;;
13764;SDS011;6953;48.810;9.204;2022-07-23T05:53:57;0.10;;;0.10;;
13764;SDS011;6953;48.810;9.204;2022-07-23T05:56:23;0.10;;;0.10;;
13764;SDS011;6953;48.810;9.204;2022-07-23T05:58:48;0.10;;;0.10;;
13764;SDS011;6953;48.810;9.204;2022-07-23T06:01:13;0.10;;;0.10;;
13764;SDS011;6953;48.810;9.204;2022-07-23T06:03:39;0.10;;;0.10;;
13764;SDS011;6953;48.810;9.204;2022-07-23T06:06:05;0.10;;;0.10;;
13764;SDS011;6953;48.810;9.204;2022-07-23T06:08:30;0.10;;;0.10;;
13764;SDS011;6953;48.810;9.204;2022-07-23T06:10:56;0.10;;;0.10;;
13764;SDS011;6953;48.810;9.204;2022-07-23T06:13:21;0.10;;;0.10;;
13764;SDS011;6953;48.810;9.204;2022-07-23T06:15:46;0.10;;;0.10;;
13764;SDS011;6953;48.810;9.204;2022-07-23T06:18:12;0.10;;;0.10;;
13764;SDS011;6953;48.810;9.204;2022-07-23T06:20:37;0.10;;;0.10;;
13764;SDS011;6953;48.810;9.204;2022-07-23T06:23:03;0.10;;;0.10;;
13764;SDS011;6953;48.810;9.204;2022-07-23T06:25:29;0.10;;;0.10;;
13764;SDS011;6953;48.810;9.204;2022-07-23T06:27:54;0.10;;;0.10;;
13764;SDS011;6953;48.810;9.204;2022-07-23T06:30:19;0.20;;;0.20;;
13764;SDS011;6953;48.810;9.204;2022-07-23T06:32:46;0.10;;;0.10;;
13764;SDS011;6953;48.810;9.204;2022-07-23T06:35:12;0.10;;;0.10;;
13764;SDS011;6953;48.810;9.204;2022-07-23T06:37:37;0.10;;;0.10;;
13764;SDS011;6953;48.810;9.204;2022-07-23T06:40:03;0.10;;;0.10;;
13764;SDS011;6953;48.810;9.204;2022-07-23T06:42:29;0.10;;;0.10;;
13764;SDS011;6953;48.810;9.204;2022-07-23T06:44:54;0.10;;;0.10;;
13764;SDS011;6953;48.810;9.204;2022-07-23T06:47:20;0.10;;;0.10;;
13764;SDS011;6953;48.810;9.204;2022-07-23T06:49:45;0.10;;;0.10;;
13764;SDS011;6953;48.810;9.204;2022-07-23T06:52:10;0.13;;;0.13;;
13764;SDS011;6953;48.810;9.204;2022-07-23T06:54:36;0.15;;;0.15;;
13764;SDS011;6953;48.810;9.204;2022-07-23T06:57:01;0.20;;;0.20;;
13764;SDS011;6953;48.810;9.204;2022-07-23T06:59:27;0.20;;;0.20;;
13764;SDS011;6953;48.810;9.204;2022-07-23T07:01:52;0.17;;;0.17;;
13764;SDS011;6953;48.810;9.204;2022-07-23T07:04:18;0.10;;;0.10;;
13764;SDS011;6953;48.810;9.204;2022-07-23T07:06:43;0.10;;;0.10;;
13764;SDS011;6953;48.810;9.204;2022-07-23T07:09:08;0.20;;;0.20;;
13764;SDS011;6953;48.810;9.204;2022-07-23T07:11:34;0.10;;;0.10;;
13764;SDS011;6953;48.810;9.204;2022-07-23T07:13:59;0.20;;;0.20;;
13764;SDS011;6953;48.810;9.204;2022-07-23T07:16:25;0.20;;;0.20;;
13764;SDS011;6953;48.810;9.204;2022-07-23T07:18:50;0.20;;;0.20;;
13764;SDS011;6953;48.810;9.204;2022-07-23T07:21:15;0.20;;;0.20;;
13764;SDS011;6953;48.810;9.204;2022-07-23T07:23:41;0.20;;;0.20;;
13764;SDS011;6953;48.810;9.204;2022-07-23T07:26:06;0.10;;;0.10;;
13764;SDS011;6953;48.810;9.204;2022-07-23T07:28:32;0.10;;;0.10;;
13764;SDS011;6953;48.810;9.204;2022-07-23T07:30:57;0.10;;;0.10;;
13764;SDS011;6953;48.810;9.204;2022-07-23T07:33:22;0.13;;;0.13;;
13764;SDS011;6953;48.810;9.204;2022-07-23T07:35:48;0.10;;;0.10;;
13764;SDS011;6953;48.810;9.204;2022-07-23T07:38:13;0.10;;;0.10;;
13764;SDS011;6953;48.810;9.204;2022-07-23T07:40:39;0.00;;;0.00;;
13764;SDS011;6953;48.810;9.204;2022-07-23T07:43:04;0.20;;;0.20;;
13764;SDS011;6953;48.810;9.204;2022-07-23T07:45:29;0.30;;;0.30;;
13764;SDS011;6953;48.810;9.204;2022-07-23T07:47:55;0.20;;;0.20;;
13764;SDS011;6953;48.810;9.204;2022-07-23T07:50:21;0.25;;;0.25;;
13764;SDS011;6953;48.810;9.204;2022-07-23T07:52:47;0.20;;;0.20;;
13764;SDS011;6953;48.810;9.204;2022-07-23T07:55:12;0.20;;;0.20;;
13764;SDS011;6953;48.810;9.204;2022-07-23T07:57:38;0.20;;;0.20;;
13764;SDS011;6953;48.810;9.204;2022-07-23T08:00:05;0.20;;;0.20;;
13764;SDS011;6953;48.810;9.204;2022-07-23T08:02:41;0.20;;;0.20;;
13764;SDS011;6953;48.810;9.204;2022-07-23T08:05:14;0.20;;;0.20;;
13764;SDS011;6953;48.810;9.204;2022-07-23T08:07:43;0.20;;;0.20;;
13764;SDS011;6953;48.810;9.204;2022-07-23T08:10:09;0.20;;;0.20;;
13764;SDS011;6953;48.810;9.204;2022-07-23T08:12:41;0.20;;;0.20;;
13764;SDS011;6953;48.810;9.204;2022-07-23T08:15:15;0.20;;;0.20;;
13764;SDS011;6953;48.810;9.204;2022-07-23T08:17:42;0.10;;;0.10;;
13764;SDS011;6953;48.810;9.204;2022-07-23T08:20:09;0.10;;;0.10;;
13764;SDS011;6953;48.810;9.204;2022-07-23T08:23:09;0.10;;;0.10;;
13764;SDS011;6953;48.810;9.204;2022-07-23T08:25:29;0.10;;;0.10;;
13764;SDS011;6953;48.810;9.204;2022-07-23T08:27:57;0.10;;;0.10;;
13764;SDS011;6953;48.810;9.204;2022-07-23T08:30:24;0.10;;;0.10;;
13764;SDS011;6953;48.810;9.204;2022-07-23T08:35:22;0.20;;;0.20;;
13764;SDS011;6953;48.810;9.204;2022-07-23T08:37:52;0.10;;;0.10;;
13764;SDS011;6953;48.810;9.204;2022-07-23T08:40:18;0.10;;;0.10;;
13764;SDS011;6953;48.810;9.204;2022-07-23T08:42:45;0.10;;;0.10;;
13764;SDS011;6953;48.810;9.204;2022-07-23T08:45:15;0.00;;;0.00;;
13764;SDS011;6953;48.810;9.204;2022-07-23T08:47:43;0.00;;;0.00;;
13764;SDS011;6953;48.810;9.204;2022-07-23T08:50:10;0.08;;;0.08;;
13764;SDS011;6953;48.810;9.204;2022-07-23T08:52:36;0.10;;;0.10;;
13764;SDS011;6953;48.810;9.204;2022-07-23T08:55:01;0.00;;;0.00;;
13764;SDS011;6953;48.810;9.204;2022-07-23T08:57:26;0.00;;;0.00;;
13764;SDS011;6953;48.810;9.204;2022-07-23T08:59:52;0.00;;;0.00;;
13764;SDS011;6953;48.810;9.204;2022-07-23T09:02:17;0.00;;;0.00;;
13764;SDS011;6953;48.810;9.204;2022-07-23T09:04:43;0.00;;;0.00;;
13764;SDS011;6953;48.810;9.204;2022-07-23T09:07:08;0.05;;;0.05;;
13764;SDS011;6953;48.810;9.204;2022-07-23T09:09:34;0.10;;;0.10;;
13764;SDS011;6953;48.810;9.204;2022-07-23T09:12:07;0.00;;;0.00;;
13764;SDS011;6953;48.810;9.204;2022-07-23T09:14:38;0.00;;;0.00;;
13764;SDS011;6953;48.810;9.204;2022-07-23T09:17:08;0.00;;;0.00;;
13764;SDS011;6953;48.810;9.204;2022-07-23T09:19:35;0.00;;;0.00;;
13764;SDS011;6953;48.810;9.204;2022-07-23T09:22:15;0.00;;;0.00;;
13764;SDS011;6953;48.810;9.204;2022-07-23T09:27:47;0.00;;;0.00;;
13764;SDS011;6953;48.810;9.204;2022-07-23T09:30:17;0.00;;;0.00;;
13764;SDS011;6953;48.810;9.204;2022-07-23T09:32:43;0.00;;;0.00;;
13764;SDS011;6953;48.810;9.204;2022-07-23T09:35:09;0.00;;;0.00;;
13764;SDS011;6953;48.810;9.204;2022-07-23T09:37:34;0.00;;;0.00;;
13764;SDS011;6953;48.810;9.204;2022-07-23T09:40:04;0.00;;;0.00;;
13764;SDS011;6953;48.810;9.204;2022-07-23T09:42:31;0.00;;;0.00;;
13764;SDS011;6953;48.810;9.204;2022-07-23T09:44:57;0.00;;;0.00;;
13764;SDS011;6953;48.810;9.204;2022-07-23T09:47:25;0.00;;;0.00;;
13764;SDS011;6953;48.810;9.204;2022-07-23T09:52:28;0.00;;;0.00;;
13764;SDS011;6953;48.810;9.204;2022-07-23T09:54:58;0.00;;;0.00;;
13764;SDS011;6953;48.810;9.204;2022-07-23T09:57:25;0.00;;;0.00;;
13764;SDS011;6953;48.810;9.204;2022-07-23T09:59:51;0.00;;;0.00;;
13764;SDS011;6953;48.810;9.204;2022-07-23T10:02:17;0.00;;;0.00;;
13764;SDS011;6953;48.810;9.204;2022-07-23T10:04:44;0.00;;;0.00;;
13764;SDS011;6953;48.810;9.204;2022-07-23T10:07:10;0.00;;;0.00;;
13764;SDS011;6953;48.810;9.204;2022-07-23T10:09:37;0.00;;;0.00;;
13764;SDS011;6953;48.810;9.204;2022-07-23T10:12:05;0.00;;;0.00;;
13764;SDS011;6953;48.810;9.204;2022-07-23T10:14:40;0.00;;;0.00;;
13764;SDS011;6953;48.810;9.204;2022-07-23T10:17:06;0.00;;;0.00;;
13764;SDS011;6953;48.810;9.204;2022-07-23T10:19:32;0.00;;;0.00;;
13764;SDS011;6953;48.810;9.204;2022-07-23T10:22:14;0.00;;;0.00;;
13764;SDS011;6953;48.810;9.204;2022-07-23T10:27:51;0.00;;;0.00;;
13764;SDS011;6953;48.810;9.204;2022-07-23T10:38:58;0.00;;;0.00;;
13764;SDS011;6953;48.810;9.204;2022-07-23T10:41:40;0.00;;;0.00;;
13764;SDS011;6953;48.810;9.204;2022-07-23T10:46:32;0.00;;;0.00;;
13764;SDS011;6953;48.810;9.204;2022-07-23T10:49:30;0.00;;;0.00;;
13764;SDS011;6953;48.810;9.204;2022-07-23T10:52:38;0.00;;;0.00;;
13764;SDS011;6953;48.810;9.204;2022-07-23T10:57:16;0.00;;;0.00;;
13764;SDS011;6953;48.810;9.204;2022-07-23T11:02:38;0.00;;;0.00;;
13764;SDS011;6953;48.810;9.204;2022-07-23T11:05:05;0.00;;;0.00;;
13764;SDS011;6953;48.810;9.204;2022-07-23T11:07:33;0.00;;;0.00;;
13764;SDS011;6953;48.810;9.204;2022-07-23T11:09:59;0.00;;;0.00;;
13764;SDS011;6953;48.810;9.204;2022-07-23T11:15:10;0.00;;;0.00;;
13764;SDS011;6953;48.810;9.204;2022-07-23T11:25:08;0.00;;;0.00;;
13764;SDS011;6953;48.810;9.204;2022-07-23T11:27:37;0.00;;;0.00;;
13764;SDS011;6953;48.810;9.204;2022-07-23T11:30:07;0.00;;;0.00;;
13764;SDS011;6953;48.810;9.204;2022-07-23T11:32:40;0.00;;;0.00;;
13764;SDS011;6953;48.810;9.204;2022-07-23T11:35:27;0.00;;;0.00;;
13764;SDS011;6953;48.810;9.204;2022-07-23T11:37:54;0.00;;;0.00;;
13764;SDS011;6953;48.810;9.204;2022-07-23T11:40:29;0.00;;;0.00;;
13764;SDS011;6953;48.810;9.204;2022-07-23T11:42:55;0.00;;;0.00;;
13764;SDS011;6953;48.810;9.204;2022-07-23T11:45:24;0.00;;;0.00;;
13764;SDS011;6953;48.810;9.204;2022-07-23T11:47:55;0.00;;;0.00;;
13764;SDS011;6953;48.810;9.204;2022-07-23T11:50:22;0.00;;;0.00;;
13764;SDS011;6953;48.810;9.204;2022-07-23T11:52:48;0.00;;;0.00;;
13764;SDS011;6953;48.810;9.204;2022-07-23T11:55:14;0.00;;;0.00;;
13764;SDS011;6953;48.810;9.204;2022-07-23T11:57:41;0.00;;;0.00;;
13764;SDS011;6953;48.810;9.204;2022-07-23T12:00:07;0.00;;;0.00;;
13764;SDS011;6953;48.810;9.204;2022-07-23T12:02:39;0.00;;;0.00;;
13764;SDS011;6953;48.810;9.204;2022-07-23T12:05:06;0.00;;;0.00;;
13764;SDS011;6953;48.810;9.204;2022-07-23T12:07:35;0.00;;;0.00;;
13764;SDS011;6953;48.810;9.204;2022-07-23T12:10:09;0.00;;;0.00;;
13764;SDS011;6953;48.810;9.204;2022-07-23T12:12:58;0.00;;;0.00;;
13764;SDS011;6953;48.810;9.204;2022-07-23T12:15:35;0.00;;;0.00;;
13764;SDS011;6953;48.810;9.204;2022-07-23T12:18:03;0.00;;;0.00;;
13764;SDS011;6953;48.810;9.204;2022-07-23T12:20:34;0.00;;;0.00;;
13764;SDS011;6953;48.810;9.204;2022-07-23T12:23:07;0.00;;;0.00;;
13764;SDS011;6953;48.810;9.204;2022-07-23T12:25:35;0.00;;;0.00;;
13764;SDS011;6953;48.810;9.204;2022-07-23T12:28:07;0.00;;;0.00;;
13764;SDS011;6953;48.810;9.204;2022-07-23T12:33:03;0.00;;;0.00;;
13764;SDS011;6953;48.810;9.204;2022-07-23T12:35:31;0.00;;;0.00;;
13764;SDS011;6953;48.810;9.204;2022-07-23T12:38:08;0.00;;;0.00;;
13764;SDS011;6953;48.810;9.204;2022-07-23T12:40:36;0.00;;;0.00;;
13764;SDS011;6953;48.810;9.204;2022-07-23T12:43:07;0.00;;;0.00;;
13764;SDS011;6953;48.810;9.204;2022-07-23T12:48:15;0.00;;;0.00;;
13764;SDS011;6953;48.810;9.204;2022-07-23T12:50:43;0.00;;;0.00;;
13764;SDS011;6953;48.810;9.204;2022-07-23T12:53:16;0.00;;;0.00;;
13764;SDS011;6953;48.810;9.204;2022-07-23T12:55:43;0.00;;;0.00;;
13764;SDS011;6953;48.810;9.204;2022-07-23T12:58:14;0.00;;;0.00;;
13764;SDS011;6953;48.810;9.204;2022-07-23T13:00:50;0.00;;;0.00;;
13764;SDS011;6953;48.810;9.204;2022-07-23T13:03:24;0.00;;;0.00;;
13764;SDS011;6953;48.810;9.204;2022-07-23T13:05:57;0.00;;;0.00;;
13764;SDS011;6953;48.810;9.204;2022-07-23T13:08:23;0.00;;;0.00;;
13764;SDS011;6953;48.810;9.204;2022-07-23T13:10:50;0.00;;;0.00;;
13764;SDS011;6953;48.810;9.204;2022-07-23T13:13:21;0.00;;;0.00;;
13764;SDS011;6953;48.810;9.204;2022-07-23T13:15:48;0.00;;;0.00;;
13764;SDS011;6953;48.810;9.204;2022-07-23T13:18:13;0.00;;;0.00;;
13764;SDS011;6953;48.810;9.204;2022-07-23T13:20:39;0.00;;;0.00;;
13764;SDS011;6953;48.810;9.204;2022-07-23T13:23:05;0.00;;;0.00;;
13764;SDS011;6953;48.810;9.204;2022-07-23T13:25:32;0.00;;;0.00;;
13764;SDS011;6953;48.810;9.204;2022-07-23T13:27:57;0.00;;;0.00;;
13764;SDS011;6953;48.810;9.204;2022-07-23T13:30:23;0.00;;;0.00;;
13764;SDS011;6953;48.810;9.204;2022-07-23T13:32:48;0.00;;;0.00;;
13764;SDS011;6953;48.810;9.204;2022-07-23T13:35:14;0.00;;;0.00;;
13764;SDS011;6953;48.810;9.204;2022-07-23T13:37:39;0.00;;;0.00;;
13764;SDS011;6953;48.810;9.204;2022-07-23T13:40:05;0.00;;;0.00;;
13764;SDS011;6953;48.810;9.204;2022-07-23T13:42:31;0.00;;;0.00;;
13764;SDS011;6953;48.810;9.204;2022-07-23T13:44:57;0.00;;;0.00;;
13764;SDS011;6953;48.810;9.204;2022-07-23T13:47:22;0.00;;;0.00;;
13764;SDS011;6953;48.810;9.204;2022-07-23T13:49:47;0.00;;;0.00;;
13764;SDS011;6953;48.810;9.204;2022-07-23T13:52:13;0.00;;;0.00;;
13764;SDS011;6953;48.810;9.204;2022-07-23T13:54:38;0.00;;;0.00;;
13764;SDS011;6953;48.810;9.204;2022-07-23T13:57:03;0.00;;;0.00;;
13764;SDS011;6953;48.810;9.204;2022-07-23T13:59:29;0.00;;;0.00;;
13764;SDS011;6953;48.810;9.204;2022-07-23T14:01:54;0.00;;;0.00;;
13764;SDS011;6953;48.810;9.204;2022-07-23T14:04:20;0.00;;;0.00;;
13764;SDS011;6953;48.810;9.204;2022-07-23T14:06:46;0.00;;;0.00;;
13764;SDS011;6953;48.810;9.204;2022-07-23T14:09:11;0.00;;;0.00;;
13764;SDS011;6953;48.810;9.204;2022-07-23T14:11:37;0.00;;;0.00;;
13764;SDS011;6953;48.810;9.204;2022-07-23T14:14:03;0.00;;;0.00;;
13764;SDS011;6953;48.810;9.204;2022-07-23T14:16:29;0.00;;;0.00;;
13764;SDS011;6953;48.810;9.204;2022-07-23T14:18:54;0.00;;;0.00;;
13764;SDS011;6953;48.810;9.204;2022-07-23T14:21:20;0.00;;;0.00;;
13764;SDS011;6953;48.810;9.204;2022-07-23T14:23:45;0.10;;;0.10;;
13764;SDS011;6953;48.810;9.204;2022-07-23T14:26:10;0.00;;;0.00;;
13764;SDS011;6953;48.810;9.204;2022-07-23T14:28:36;0.00;;;0.00;;
13764;SDS011;6953;48.810;9.204;2022-07-23T14:31:01;0.00;;;0.00;;
13764;SDS011;6953;48.810;9.204;2022-07-23T14:33:27;0.00;;;0.00;;
13764;SDS011;6953;48.810;9.204;2022-07-23T14:35:52;0.00;;;0.00;;
13764;SDS011;6953;48.810;9.204;2022-07-23T14:38:18;0.00;;;0.00;;
13764;SDS011;6953;48.810;9.204;2022-07-23T14:40:43;0.00;;;0.00;;
13764;SDS011;6953;48.810;9.204;2022-07-23T14:43:08;0.00;;;0.00;;
13764;SDS011;6953;48.810;9.204;2022-07-23T14:45:34;0.05;;;0.05;;
13764;SDS011;6953;48.810;9.204;2022-07-23T14:48:00;0.00;;;0.00;;
13764;SDS011;6953;48.810;9.204;2022-07-23T14:50:27;0.00;;;0.00;;
13764;SDS011;6953;48.810;9.204;2022-07-23T14:52:53;0.00;;;0.00;;
13764;SDS011;6953;48.810;9.204;2022-07-23T14:55:19;0.10;;;0.10;;
13764;SDS011;6953;48.810;9.204;2022-07-23T14:57:44;0.00;;;0.00;;
13764;SDS011;6953;48.810;9.204;2022-07-23T15:00:10;0.03;;;0.03;;
13764;SDS011;6953;48.810;9.204;2022-07-23T15:02:35;0.00;;;0.00;;
13764;SDS011;6953;48.810;9.204;2022-07-23T15:05:01;0.00;;;0.00;;
13764;SDS011;6953;48.810;9.204;2022-07-23T15:07:27;0.00;;;0.00;;
13764;SDS011;6953;48.810;9.204;2022-07-23T15:09:54;0.00;;;0.00;;
13764;SDS011;6953;48.810;9.204;2022-07-23T15:12:19;0.00;;;0.00;;
13764;SDS011;6953;48.810;9.204;2022-07-23T15:14:45;0.00;;;0.00;;
13764;SDS011;6953;48.810;9.204;2022-07-23T15:17:10;0.00;;;0.00;;
13764;SDS011;6953;48.810;9.204;2022-07-23T15:19:35;0.00;;;0.00;;
13764;SDS011;6953;48.810;9.204;2022-07-23T15:22:01;0.00;;;0.00;;
13764;SDS011;6953;48.810;9.204;2022-07-23T15:24:26;0.00;;;0.00;;
13764;SDS011;6953;48.810;9.204;2022-07-23T15:26:52;0.00;;;0.00;;
13764;SDS011;6953;48.810;9.204;2022-07-23T15:29:17;0.00;;;0.00;;
13764;SDS011;6953;48.810;9.204;2022-07-23T15:31:42;0.10;;;0.10;;
13764;SDS011;6953;48.810;9.204;2022-07-23T15:34:08;0.00;;;0.00;;
13764;SDS011;6953;48.810;9.204;2022-07-23T15:36:33;0.08;;;0.08;;
13764;SDS011;6953;48.810;9.204;2022-07-23T15:38:58;0.00;;;0.00;;
13764;SDS011;6953;48.810;9.204;2022-07-23T15:41:24;0.00;;;0.00;;